Flight Track Log - Related Links

Times and Time Zones

All times are in EDT time to prevent confusion due to time zone crossing. See the AAY272 flight status page for this flight to view local times or setup timezone preferences in your user account.

Time Position Orientation Groundspeed Altitude Reporting Facility
EDT Latitude Longitude Course Direction KTS MPH feet Rate Location/Type
Sun 04:45:32 PM 36.0761 -115.1683 277° West 171 197 3,100  Level Los Angeles Center
Sun 04:45:53 PM 36.0783 -115.1906 277° West 181 208 3,400 1,726 Climbing Los Angeles Center
Sun 04:46:45 PM 36.0644 -115.2544 255° West 232 267 5,200 2,129 Climbing Los Angeles Center
Sun 04:47:57 PM 35.9961 -115.2869 201° Southwest 253 291 7,800 2,194 Climbing Los Angeles Center
Sun 04:48:59 PM 35.9489 -115.3539 229° Southwest 271 312 10,100 1,935 Climbing Los Angeles Center
Sun 04:50:01 PM 35.9325 -115.4656 260° West 305 351 11,800 2,323 Climbing Los Angeles Center
Sun 04:51:03 PM 35.9261 -115.6139 267° West 377 434 14,900 2,516 Climbing Los Angeles Center
Sun 04:52:05 PM 35.9361 -115.7558 275° West 390 449 17,000 2,208 Climbing Los Angeles Center
Sun 04:53:08 PM 35.9694 -115.8889 287° West 405 466 19,500 2,208 Climbing Los Angeles Center
Sun 04:54:10 PM 35.9944 -116.0253 283° West 407 468 21,600 1,935 Climbing Los Angeles Center
Sun 04:55:12 PM 36.0281 -116.1742 286° West 420 483 23,500 1,721 Climbing Los Angeles Center
Sun 04:56:26 PM 36.0592 -116.3036 287° West 422 486 25,500 1,853 Climbing Los Angeles Center
Sun 04:57:28 PM 36.0958 -116.4686 285° West 417 480 27,700 1,839 Climbing Los Angeles Center
Sun 04:58:30 PM 36.1250 -116.6017 285° West 410 472 29,300 1,113 Climbing Los Angeles Center
Sun 04:59:32 PM 36.1614 -116.7611 286° West 405 466 30,000 339 Climbing Los Angeles Center
Sun 05:00:34 PM 36.1897 -116.8933 285° West 402 463 30,000  Level Los Angeles Center
Sun 05:01:36 PM 36.2189 -117.0267 285° West 402 463 30,000  Level Los Angeles Center
Sun 05:02:38 PM 36.2492 -117.1603 286° West 405 466 30,000  Level Los Angeles Center
Sun 05:03:41 PM 36.2794 -117.2953 286° West 407 468 30,000  Level Los Angeles Center
Sun 05:04:43 PM 36.3133 -117.4542 285° West 404 465 30,000  Level Los Angeles Center
Sun 05:05:45 PM 36.3414 -117.5856 285° West 401 461 30,000  Level Los Angeles Center
Sun 05:06:47 PM 36.3711 -117.7192 285° West 401 461 30,000  Level Los Angeles Center
Sun 05:07:49 PM 36.4011 -117.8536 286° West 403 464 30,000 -823 Level Los Angeles Center
Sun 05:08:51 PM 36.4283 -117.9900 284° West 405 466 28,300 -1,935 Descending Los Angeles Center
Sun 05:09:53 PM 36.4564 -118.1239 285° West 405 466 26,000 -2,419 Descending Los Angeles Center
Sun 05:10:55 PM 36.4892 -118.2800 285° West 395 455 23,300 -2,710 Descending Los Angeles Center
Sun 05:11:57 PM 36.5122 -118.4075 283° West 384 442 20,400 -2,538 Descending Los Angeles Center
Sun 05:12:13 PM 36.5181 -118.4392 283° West 386 444 20,000 -308 Descending Oakland Center
Sun 05:13:15 PM 36.5472 -118.5614 287° West 372 428 20,000  Level Oakland Center
Sun 05:14:16 PM 36.5711 -118.6822 284° West 363 418 20,000  Level Oakland Center
Sun 05:15:17 PM 36.5953 -118.8042 284° West 365 420 20,000 -98 Level Oakland Center
Sun 05:16:19 PM 36.6250 -118.9347 286° West 331 381 19,800 -1,463 Descending Oakland Center
Sun 05:17:20 PM 36.6417 -119.0450 281° West 327 376 17,000 -3,000 Descending Oakland Center
Sun 05:18:21 PM 36.6653 -119.1636 284° West 351 404 13,700 -3,073 Descending Oakland Center
Sun 05:19:23 PM 36.6900 -119.2836 284° West 356 410 10,700 -2,146 Descending Oakland Center
Sun 05:20:24 PM 36.6656 -119.3864 254° West 303 349 9,300 -1,525 Descending Oakland Center
Sun 05:21:25 PM 36.6369 -119.4708 247° West 269 310 7,600 -1,574 Descending Oakland Center
Sun 05:22:26 PM 36.6442 -119.5322 278° West 198 228 6,100 -1,561 Descending Oakland Center
Sun 05:23:28 PM 36.6772 -119.5675 319° Northwest 162 186 4,400 -1,610 Descending Oakland Center
Sun 05:24:29 PM 36.7069 -119.6031 316° Northwest 151 174 2,800 -1,377 Descending Oakland Center
Sun 05:25:30 PM 36.7364 -119.6508 308° West 147 169 1,600 -976 Descending Oakland Center
Sun 05:26:32 PM 36.7583 -119.6892 306° West 140 161 800 -634 Descending Oakland Center
Sun 05:27:33 PM 36.7789 -119.7256 305° West 126 145 300 -492 Descending Oakland Center
Sun 05:29:00 PM 36.7764 -119.7187 North  Level Estimated

Login

Don't have an account? Register now (free) for customized features, flight alerts, and more!